Terminal Aerodrome Forecast
Issued by NWS Tampa Bay Area, FL

Home | Current Version | Previous Version | Text Only | Print | Product List | Glossary On
Versions: 1 2 3 4 5 6 7 8 9 10 11 12 13
000
FTUS42 KTBW 020549
TAFSRQ
TAF
KSRQ 020549Z 0206/0306 VRB05KT P6SM FEW025 BKN150 BKN250
     FM021200 VRB05KT P6SM VCSH SCT025 BKN050 BKN120
     FM021500 23008KT 6SM SHRA BKN040 OVC120
      TEMPO 0215/0219 3SM TSRA BKN030CB
     FM022300 VRB05KT P6SM VCSH SCT030 BKN050 BKN150=

USA.gov is the U.S. government's official web portal to all federal, state and local government web resources and services.